sensor_id;sensor_type;location;lat;lon;timestamp;temperature;humidity
76040;SHT30;64736;50.462;4.850;2023-08-31T00:00:34;13.36;87.27
76040;SHT30;64736;50.462;4.850;2023-08-31T00:03:01;13.36;87.24
76040;SHT30;64736;50.462;4.850;2023-08-31T00:05:28;13.36;86.95
76040;SHT30;64736;50.462;4.850;2023-08-31T00:07:57;13.38;87.78
76040;SHT30;64736;50.462;4.850;2023-08-31T00:10:23;13.48;88.66
76040;SHT30;64736;50.462;4.850;2023-08-31T00:12:49;13.37;87.59
76040;SHT30;64736;50.462;4.850;2023-08-31T00:15:15;13.36;88.80
76040;SHT30;64736;50.462;4.850;2023-08-31T00:17:43;13.37;88.19
76040;SHT30;64736;50.462;4.850;2023-08-31T00:20:09;13.47;88.99
76040;SHT30;64736;50.462;4.850;2023-08-31T00:22:38;13.54;88.19
76040;SHT30;64736;50.462;4.850;2023-08-31T00:25:05;13.47;87.58
76040;SHT30;64736;50.462;4.850;2023-08-31T00:27:34;13.48;87.85
76040;SHT30;64736;50.462;4.850;2023-08-31T00:30:05;13.37;87.88
76040;SHT30;64736;50.462;4.850;2023-08-31T00:32:33;13.11;88.28
76040;SHT30;64736;50.462;4.850;2023-08-31T00:35:00;13.21;89.09
76040;SHT30;64736;50.462;4.850;2023-08-31T00:37:26;13.24;89.85
76040;SHT30;64736;50.462;4.850;2023-08-31T00:39:51;13.26;89.78
76040;SHT30;64736;50.462;4.850;2023-08-31T00:42:18;13.27;90.69
76040;SHT30;64736;50.462;4.850;2023-08-31T00:44:44;13.19;90.42
76040;SHT30;64736;50.462;4.850;2023-08-31T00:47:13;13.17;90.35
76040;SHT30;64736;50.462;4.850;2023-08-31T00:49:40;13.11;89.94
76040;SHT30;64736;50.462;4.850;2023-08-31T00:52:07;13.23;89.96
76040;SHT30;64736;50.462;4.850;2023-08-31T00:54:34;13.50;90.04
76040;SHT30;64736;50.462;4.850;2023-08-31T00:57:00;13.53;89.22
76040;SHT30;64736;50.462;4.850;2023-08-31T00:59:26;13.67;89.34
76040;SHT30;64736;50.462;4.850;2023-08-31T01:05:18;13.34;89.84
76040;SHT30;64736;50.462;4.850;2023-08-31T01:08:05;13.58;88.84
76040;SHT30;64736;50.462;4.850;2023-08-31T01:10:50;13.69;87.89
76040;SHT30;64736;50.462;4.850;2023-08-31T01:13:24;13.75;87.06
76040;SHT30;64736;50.462;4.850;2023-08-31T01:15:53;13.77;86.95
76040;SHT30;64736;50.462;4.850;2023-08-31T01:18:32;13.53;87.52
76040;SHT30;64736;50.462;4.850;2023-08-31T01:24:00;13.64;87.53
76040;SHT30;64736;50.462;4.850;2023-08-31T01:26:27;13.67;87.45
76040;SHT30;64736;50.462;4.850;2023-08-31T01:28:54;13.61;87.69
76040;SHT30;64736;50.462;4.850;2023-08-31T01:31:21;13.65;87.46
76040;SHT30;64736;50.462;4.850;2023-08-31T01:33:48;13.65;86.99
76040;SHT30;64736;50.462;4.850;2023-08-31T01:36:35;13.55;86.50
76040;SHT30;64736;50.462;4.850;2023-08-31T01:39:20;13.61;86.70
76040;SHT30;64736;50.462;4.850;2023-08-31T01:41:55;13.58;86.79
76040;SHT30;64736;50.462;4.850;2023-08-31T01:44:34;13.62;85.76
76040;SHT30;64736;50.462;4.850;2023-08-31T01:47:05;13.61;86.02
76040;SHT30;64736;50.462;4.850;2023-08-31T01:49:38;13.62;85.73
76040;SHT30;64736;50.462;4.850;2023-08-31T01:52:04;13.51;85.75
76040;SHT30;64736;50.462;4.850;2023-08-31T01:54:30;13.64;85.94
76040;SHT30;64736;50.462;4.850;2023-08-31T01:56:56;13.64;85.98
76040;SHT30;64736;50.462;4.850;2023-08-31T01:59:22;13.65;86.11
76040;SHT30;64736;50.462;4.850;2023-08-31T02:01:47;13.65;86.38
76040;SHT30;64736;50.462;4.850;2023-08-31T02:04:13;13.61;86.59
76040;SHT30;64736;50.462;4.850;2023-08-31T02:06:39;13.71;86.63
76040;SHT30;64736;50.462;4.850;2023-08-31T02:09:05;13.72;85.30
76040;SHT30;64736;50.462;4.850;2023-08-31T02:11:31;13.79;85.48
76040;SHT30;64736;50.462;4.850;2023-08-31T02:13:58;13.78;85.40
76040;SHT30;64736;50.462;4.850;2023-08-31T02:16:24;13.79;85.54
76040;SHT30;64736;50.462;4.850;2023-08-31T02:18:49;13.77;85.42
76040;SHT30;64736;50.462;4.850;2023-08-31T02:21:15;13.75;85.71
76040;SHT30;64736;50.462;4.850;2023-08-31T02:23:40;13.62;86.41
76040;SHT30;64736;50.462;4.850;2023-08-31T02:26:06;13.68;85.99
76040;SHT30;64736;50.462;4.850;2023-08-31T02:28:32;13.68;86.02
76040;SHT30;64736;50.462;4.850;2023-08-31T02:31:02;13.62;86.52
76040;SHT30;64736;50.462;4.850;2023-08-31T02:33:28;13.64;86.32
76040;SHT30;64736;50.462;4.850;2023-08-31T02:35:54;13.64;86.18
76040;SHT30;64736;50.462;4.850;2023-08-31T02:38:20;13.58;85.68
76040;SHT30;64736;50.462;4.850;2023-08-31T02:40:46;13.59;85.67
76040;SHT30;64736;50.462;4.850;2023-08-31T02:43:13;13.58;85.58
76040;SHT30;64736;50.462;4.850;2023-08-31T02:45:38;13.58;86.40
76040;SHT30;64736;50.462;4.850;2023-08-31T02:48:06;13.57;86.03
76040;SHT30;64736;50.462;4.850;2023-08-31T02:50:34;13.62;87.43
76040;SHT30;64736;50.462;4.850;2023-08-31T02:53:00;13.55;87.56
76040;SHT30;64736;50.462;4.850;2023-08-31T02:55:25;13.50;87.28
76040;SHT30;64736;50.462;4.850;2023-08-31T02:57:51;13.47;87.18
76040;SHT30;64736;50.462;4.850;2023-08-31T03:00:17;13.43;87.96
76040;SHT30;64736;50.462;4.850;2023-08-31T03:02:48;13.41;87.08
76040;SHT30;64736;50.462;4.850;2023-08-31T03:05:14;13.40;87.26
76040;SHT30;64736;50.462;4.850;2023-08-31T03:07:39;13.40;88.48
76040;SHT30;64736;50.462;4.850;2023-08-31T03:10:06;13.40;88.11
76040;SHT30;64736;50.462;4.850;2023-08-31T03:12:31;13.44;88.32
76040;SHT30;64736;50.462;4.850;2023-08-31T03:14:57;13.44;89.04
76040;SHT30;64736;50.462;4.850;2023-08-31T03:17:23;13.40;90.06
76040;SHT30;64736;50.462;4.850;2023-08-31T03:19:49;13.38;89.92
76040;SHT30;64736;50.462;4.850;2023-08-31T03:22:15;13.34;89.54
76040;SHT30;64736;50.462;4.850;2023-08-31T03:24:41;13.34;89.08
76040;SHT30;64736;50.462;4.850;2023-08-31T03:27:06;13.27;88.95
76040;SHT30;64736;50.462;4.850;2023-08-31T03:29:32;13.40;89.35
76040;SHT30;64736;50.462;4.850;2023-08-31T03:32:00;13.40;88.60
76040;SHT30;64736;50.462;4.850;2023-08-31T03:34:30;13.41;88.84
76040;SHT30;64736;50.462;4.850;2023-08-31T03:36:56;13.40;87.79
76040;SHT30;64736;50.462;4.850;2023-08-31T03:39:23;13.41;87.93
76040;SHT30;64736;50.462;4.850;2023-08-31T03:41:49;13.41;88.46
76040;SHT30;64736;50.462;4.850;2023-08-31T03:44:15;13.31;88.51
76040;SHT30;64736;50.462;4.850;2023-08-31T03:46:41;13.26;88.49
76040;SHT30;64736;50.462;4.850;2023-08-31T03:49:06;13.44;87.59
76040;SHT30;64736;50.462;4.850;2023-08-31T03:51:33;13.43;86.88
76040;SHT30;64736;50.462;4.850;2023-08-31T03:53:58;13.43;86.95
76040;SHT30;64736;50.462;4.850;2023-08-31T03:56:24;13.43;87.16
76040;SHT30;64736;50.462;4.850;2023-08-31T03:58:50;13.40;87.46
76040;SHT30;64736;50.462;4.850;2023-08-31T04:01:16;13.44;86.39
76040;SHT30;64736;50.462;4.850;2023-08-31T04:03:43;13.20;86.82
76040;SHT30;64736;50.462;4.850;2023-08-31T04:06:08;13.33;87.51
76040;SHT30;64736;50.462;4.850;2023-08-31T04:08:34;13.41;86.97
76040;SHT30;64736;50.462;4.850;2023-08-31T04:11:00;13.41;86.63
76040;SHT30;64736;50.462;4.850;2023-08-31T04:13:26;13.34;86.94
76040;SHT30;64736;50.462;4.850;2023-08-31T04:15:55;13.44;86.87
76040;SHT30;64736;50.462;4.850;2023-08-31T04:18:21;13.43;86.71
76040;SHT30;64736;50.462;4.850;2023-08-31T04:20:52;13.46;86.68
76040;SHT30;64736;50.462;4.850;2023-08-31T04:23:19;13.33;86.83
76040;SHT30;64736;50.462;4.850;2023-08-31T04:25:45;13.47;86.72
76040;SHT30;64736;50.462;4.850;2023-08-31T04:28:11;13.44;86.47
76040;SHT30;64736;50.462;4.850;2023-08-31T04:30:37;13.36;86.55
76040;SHT30;64736;50.462;4.850;2023-08-31T04:33:06;13.34;86.74
76040;SHT30;64736;50.462;4.850;2023-08-31T04:35:32;13.23;87.30
76040;SHT30;64736;50.462;4.850;2023-08-31T04:37:58;13.21;86.80
76040;SHT30;64736;50.462;4.850;2023-08-31T04:40:24;13.14;87.13
76040;SHT30;64736;50.462;4.850;2023-08-31T04:42:50;13.03;87.38
76040;SHT30;64736;50.462;4.850;2023-08-31T04:45:16;12.97;88.12
76040;SHT30;64736;50.462;4.850;2023-08-31T04:47:42;12.97;87.77
76040;SHT30;64736;50.462;4.850;2023-08-31T04:50:08;12.95;87.79
76040;SHT30;64736;50.462;4.850;2023-08-31T04:52:34;12.95;88.11
76040;SHT30;64736;50.462;4.850;2023-08-31T04:55:05;12.95;88.06
76040;SHT30;64736;50.462;4.850;2023-08-31T04:57:33;12.96;88.10
76040;SHT30;64736;50.462;4.850;2023-08-31T04:59:59;13.02;88.68
76040;SHT30;64736;50.462;4.850;2023-08-31T05:02:24;13.06;88.49
76040;SHT30;64736;50.462;4.850;2023-08-31T05:04:51;13.03;88.27
76040;SHT30;64736;50.462;4.850;2023-08-31T05:07:16;13.03;88.04
76040;SHT30;64736;50.462;4.850;2023-08-31T05:09:42;13.03;88.02
76040;SHT30;64736;50.462;4.850;2023-08-31T05:12:08;12.93;88.56
76040;SHT30;64736;50.462;4.850;2023-08-31T05:14:34;12.97;88.25
76040;SHT30;64736;50.462;4.850;2023-08-31T05:17:04;12.73;88.54
76040;SHT30;64736;50.462;4.850;2023-08-31T05:19:32;12.68;88.98
76040;SHT30;64736;50.462;4.850;2023-08-31T05:21:58;12.93;88.35
76040;SHT30;64736;50.462;4.850;2023-08-31T05:24:24;12.71;88.57
76040;SHT30;64736;50.462;4.850;2023-08-31T05:26:49;12.83;88.27
76040;SHT30;64736;50.462;4.850;2023-08-31T05:29:15;12.65;89.04
76040;SHT30;64736;50.462;4.850;2023-08-31T05:31:41;12.63;88.40
76040;SHT30;64736;50.462;4.850;2023-08-31T05:34:09;12.59;89.31
76040;SHT30;64736;50.462;4.850;2023-08-31T05:36:35;12.63;89.36
76040;SHT30;64736;50.462;4.850;2023-08-31T05:39:02;12.75;88.90
76040;SHT30;64736;50.462;4.850;2023-08-31T05:41:27;12.76;88.93
76040;SHT30;64736;50.462;4.850;2023-08-31T05:43:53;12.45;89.51
76040;SHT30;64736;50.462;4.850;2023-08-31T05:46:19;12.51;89.94
76040;SHT30;64736;50.462;4.850;2023-08-31T05:48:45;12.59;89.62
76040;SHT30;64736;50.462;4.850;2023-08-31T05:51:10;12.49;89.36
76040;SHT30;64736;50.462;4.850;2023-08-31T05:53:36;12.38;89.66
76040;SHT30;64736;50.462;4.850;2023-08-31T05:56:03;12.62;89.52
76040;SHT30;64736;50.462;4.850;2023-08-31T05:58:34;12.63;89.21
76040;SHT30;64736;50.462;4.850;2023-08-31T06:01:01;12.66;88.90
76040;SHT30;64736;50.462;4.850;2023-08-31T06:03:27;12.61;89.27
76040;SHT30;64736;50.462;4.850;2023-08-31T06:05:55;12.68;88.76
76040;SHT30;64736;50.462;4.850;2023-08-31T06:08:21;12.86;88.69
76040;SHT30;64736;50.462;4.850;2023-08-31T06:10:47;12.99;87.79
76040;SHT30;64736;50.462;4.850;2023-08-31T06:13:12;12.97;87.62
76040;SHT30;64736;50.462;4.850;2023-08-31T06:15:38;12.85;88.20
76040;SHT30;64736;50.462;4.850;2023-08-31T06:18:05;12.97;87.58
76040;SHT30;64736;50.462;4.850;2023-08-31T06:20:30;12.82;88.74
76040;SHT30;64736;50.462;4.850;2023-08-31T06:22:57;13.04;87.93
76040;SHT30;64736;50.462;4.850;2023-08-31T06:25:22;13.07;87.85
76040;SHT30;64736;50.462;4.850;2023-08-31T06:27:48;13.13;87.89
76040;SHT30;64736;50.462;4.850;2023-08-31T06:30:14;13.11;87.59
76040;SHT30;64736;50.462;4.850;2023-08-31T06:32:46;13.14;87.60
76040;SHT30;64736;50.462;4.850;2023-08-31T06:35:12;13.19;87.72
76040;SHT30;64736;50.462;4.850;2023-08-31T06:37:42;13.26;87.48
76040;SHT30;64736;50.462;4.850;2023-08-31T06:40:09;13.37;87.36
76040;SHT30;64736;50.462;4.850;2023-08-31T06:42:36;13.53;86.81
76040;SHT30;64736;50.462;4.850;2023-08-31T06:45:03;13.71;87.18
76040;SHT30;64736;50.462;4.850;2023-08-31T06:47:29;13.90;86.30
76040;SHT30;64736;50.462;4.850;2023-08-31T06:49:54;13.96;85.89
76040;SHT30;64736;50.462;4.850;2023-08-31T06:52:20;14.09;86.06
76040;SHT30;64736;50.462;4.850;2023-08-31T06:54:46;14.16;85.69
76040;SHT30;64736;50.462;4.850;2023-08-31T06:57:11;14.20;85.46
76040;SHT30;64736;50.462;4.850;2023-08-31T06:59:37;14.33;85.27
76040;SHT30;64736;50.462;4.850;2023-08-31T07:02:02;14.46;85.47
76040;SHT30;64736;50.462;4.850;2023-08-31T07:04:28;14.65;85.45
76040;SHT30;64736;50.462;4.850;2023-08-31T07:06:54;14.84;84.63
76040;SHT30;64736;50.462;4.850;2023-08-31T07:09:20;14.81;84.55
76040;SHT30;64736;50.462;4.850;2023-08-31T07:11:45;14.82;84.45
76040;SHT30;64736;50.462;4.850;2023-08-31T07:14:11;14.87;84.65
76040;SHT30;64736;50.462;4.850;2023-08-31T07:16:37;14.80;84.85
76040;SHT30;64736;50.462;4.850;2023-08-31T07:19:03;14.82;84.89
76040;SHT30;64736;50.462;4.850;2023-08-31T07:21:29;14.73;85.10
76040;SHT30;64736;50.462;4.850;2023-08-31T07:23:55;14.71;85.03
76040;SHT30;64736;50.462;4.850;2023-08-31T07:26:21;14.75;85.34
76040;SHT30;64736;50.462;4.850;2023-08-31T07:28:47;14.92;84.91
76040;SHT30;64736;50.462;4.850;2023-08-31T07:31:13;14.99;84.54
76040;SHT30;64736;50.462;4.850;2023-08-31T07:33:39;14.92;84.97
76040;SHT30;64736;50.462;4.850;2023-08-31T07:36:05;15.15;84.57
76040;SHT30;64736;50.462;4.850;2023-08-31T07:38:32;15.26;84.26
76040;SHT30;64736;50.462;4.850;2023-08-31T07:40:58;15.15;84.19
76040;SHT30;64736;50.462;4.850;2023-08-31T07:43:24;15.03;84.14
76040;SHT30;64736;50.462;4.850;2023-08-31T07:45:50;15.11;84.54
76040;SHT30;64736;50.462;4.850;2023-08-31T07:48:15;15.01;84.27
76040;SHT30;64736;50.462;4.850;2023-08-31T07:50:41;15.16;84.23
76040;SHT30;64736;50.462;4.850;2023-08-31T07:53:34;15.22;83.82
76040;SHT30;64736;50.462;4.850;2023-08-31T07:56:13;15.40;83.66
76040;SHT30;64736;50.462;4.850;2023-08-31T07:58:42;15.51;82.97
76040;SHT30;64736;50.462;4.850;2023-08-31T08:01:07;15.70;82.62
76040;SHT30;64736;50.462;4.850;2023-08-31T08:03:33;15.93;81.85
76040;SHT30;64736;50.462;4.850;2023-08-31T08:05:59;16.12;81.70
76040;SHT30;64736;50.462;4.850;2023-08-31T08:08:25;16.21;80.89
76040;SHT30;64736;50.462;4.850;2023-08-31T08:10:54;16.30;81.10
76040;SHT30;64736;50.462;4.850;2023-08-31T08:13:19;16.33;80.58
76040;SHT30;64736;50.462;4.850;2023-08-31T08:15:46;16.38;80.80
76040;SHT30;64736;50.462;4.850;2023-08-31T08:18:11;16.46;80.56
76040;SHT30;64736;50.462;4.850;2023-08-31T08:20:37;16.44;80.87
76040;SHT30;64736;50.462;4.850;2023-08-31T08:23:05;16.65;80.27
76040;SHT30;64736;50.462;4.850;2023-08-31T08:25:30;16.62;80.10
76040;SHT30;64736;50.462;4.850;2023-08-31T08:28:03;16.63;79.66
76040;SHT30;64736;50.462;4.850;2023-08-31T08:30:32;16.56;79.98
76040;SHT30;64736;50.462;4.850;2023-08-31T08:32:58;16.81;79.66
76040;SHT30;64736;50.462;4.850;2023-08-31T08:35:24;16.86;79.53
76040;SHT30;64736;50.462;4.850;2023-08-31T08:37:52;17.00;79.21
76040;SHT30;64736;50.462;4.850;2023-08-31T08:40:18;16.86;79.14
76040;SHT30;64736;50.462;4.850;2023-08-31T08:42:59;16.87;79.77
76040;SHT30;64736;50.462;4.850;2023-08-31T08:45:26;16.86;78.80
76040;SHT30;64736;50.462;4.850;2023-08-31T08:47:54;17.15;78.84
76040;SHT30;64736;50.462;4.850;2023-08-31T08:50:20;17.32;78.30
76040;SHT30;64736;50.462;4.850;2023-08-31T08:52:46;17.38;78.21
76040;SHT30;64736;50.462;4.850;2023-08-31T08:55:13;17.46;77.46
76040;SHT30;64736;50.462;4.850;2023-08-31T08:57:40;17.70;76.62
76040;SHT30;64736;50.462;4.850;2023-08-31T09:00:06;17.45;75.98
76040;SHT30;64736;50.462;4.850;2023-08-31T09:02:32;17.66;76.62
76040;SHT30;64736;50.462;4.850;2023-08-31T09:04:57;17.68;76.48
76040;SHT30;64736;50.462;4.850;2023-08-31T09:07:24;17.39;76.26
76040;SHT30;64736;50.462;4.850;2023-08-31T09:09:51;17.79;75.73
76040;SHT30;64736;50.462;4.850;2023-08-31T09:12:17;17.89;74.49
76040;SHT30;64736;50.462;4.850;2023-08-31T09:15:03;17.68;75.63
76040;SHT30;64736;50.462;4.850;2023-08-31T09:17:41;17.69;74.87
76040;SHT30;64736;50.462;4.850;2023-08-31T09:20:08;17.97;73.66
76040;SHT30;64736;50.462;4.850;2023-08-31T09:22:35;17.94;74.23
76040;SHT30;64736;50.462;4.850;2023-08-31T09:25:02;17.65;74.58
76040;SHT30;64736;50.462;4.850;2023-08-31T09:27:29;18.47;72.55
76040;SHT30;64736;50.462;4.850;2023-08-31T09:29:56;19.28;69.97
76040;SHT30;64736;50.462;4.850;2023-08-31T09:32:23;19.26;69.80
76040;SHT30;64736;50.462;4.850;2023-08-31T09:34:49;19.24;69.77
76040;SHT30;64736;50.462;4.850;2023-08-31T09:37:16;19.70;68.71
76040;SHT30;64736;50.462;4.850;2023-08-31T09:39:42;19.96;67.07
76040;SHT30;64736;50.462;4.850;2023-08-31T09:42:08;19.60;67.04
76040;SHT30;64736;50.462;4.850;2023-08-31T09:44:40;18.86;69.58
76040;SHT30;64736;50.462;4.850;2023-08-31T09:47:06;18.57;70.23
76040;SHT30;64736;50.462;4.850;2023-08-31T09:49:32;18.48;70.40
76040;SHT30;64736;50.462;4.850;2023-08-31T09:52:01;18.36;69.78
76040;SHT30;64736;50.462;4.850;2023-08-31T09:54:29;18.30;69.33
76040;SHT30;64736;50.462;4.850;2023-08-31T09:56:55;18.64;67.73
76040;SHT30;64736;50.462;4.850;2023-08-31T09:59:22;18.44;68.85
76040;SHT30;64736;50.462;4.850;2023-08-31T10:01:51;18.28;69.13
76040;SHT30;64736;50.462;4.850;2023-08-31T10:04:17;18.47;69.10
76040;SHT30;64736;50.462;4.850;2023-08-31T10:06:42;18.58;68.37
76040;SHT30;64736;50.462;4.850;2023-08-31T10:09:09;18.38;68.90
76040;SHT30;64736;50.462;4.850;2023-08-31T10:11:41;18.45;69.20
76040;SHT30;64736;50.462;4.850;2023-08-31T10:14:08;19.91;65.34
76040;SHT30;64736;50.462;4.850;2023-08-31T10:16:34;22.22;59.07
76040;SHT30;64736;50.462;4.850;2023-08-31T10:19:02;21.83;57.44
76040;SHT30;64736;50.462;4.850;2023-08-31T10:21:28;20.12;61.85
76040;SHT30;64736;50.462;4.850;2023-08-31T10:23:54;19.58;62.48
76040;SHT30;64736;50.462;4.850;2023-08-31T10:26:38;19.19;62.77
76040;SHT30;64736;50.462;4.850;2023-08-31T10:29:03;18.98;65.12
76040;SHT30;64736;50.462;4.850;2023-08-31T10:31:33;18.78;65.07
76040;SHT30;64736;50.462;4.850;2023-08-31T10:33:59;18.79;64.80
76040;SHT30;64736;50.462;4.850;2023-08-31T10:36:39;19.02;63.71
76040;SHT30;64736;50.462;4.850;2023-08-31T10:39:18;19.34;62.37
76040;SHT30;64736;50.462;4.850;2023-08-31T10:41:57;19.77;61.41
76040;SHT30;64736;50.462;4.850;2023-08-31T10:44:27;20.16;60.69
76040;SHT30;64736;50.462;4.850;2023-08-31T10:46:59;19.91;61.17
76040;SHT30;64736;50.462;4.850;2023-08-31T10:49:26;20.47;60.67
76040;SHT30;64736;50.462;4.850;2023-08-31T10:51:56;20.39;59.92
76040;SHT30;64736;50.462;4.850;2023-08-31T10:54:31;20.78;59.19
76040;SHT30;64736;50.462;4.850;2023-08-31T10:59:50;21.69;55.79
76040;SHT30;64736;50.462;4.850;2023-08-31T11:05:17;24.08;49.08
76040;SHT30;64736;50.462;4.850;2023-08-31T11:07:47;23.47;50.16
76040;SHT30;64736;50.462;4.850;2023-08-31T11:10:17;22.87;51.26
76040;SHT30;64736;50.462;4.850;2023-08-31T11:12:46;22.72;50.16
76040;SHT30;64736;50.462;4.850;2023-08-31T11:15:14;22.45;51.92
76040;SHT30;64736;50.462;4.850;2023-08-31T11:17:40;22.53;50.81
76040;SHT30;64736;50.462;4.850;2023-08-31T11:20:08;22.37;49.78
76040;SHT30;64736;50.462;4.850;2023-08-31T11:22:38;21.91;51.51
76040;SHT30;64736;50.462;4.850;2023-08-31T11:25:06;21.87;52.81
76040;SHT30;64736;50.462;4.850;2023-08-31T11:27:32;22.22;51.49
76040;SHT30;64736;50.462;4.850;2023-08-31T11:29:57;21.69;51.93
76040;SHT30;64736;50.462;4.850;2023-08-31T11:32:23;21.46;52.57
76040;SHT30;64736;50.462;4.850;2023-08-31T11:34:50;21.35;53.66
76040;SHT30;64736;50.462;4.850;2023-08-31T11:37:16;21.06;53.68
76040;SHT30;64736;50.462;4.850;2023-08-31T11:39:51;21.50;53.22
76040;SHT30;64736;50.462;4.850;2023-08-31T11:42:19;21.67;52.13
76040;SHT30;64736;50.462;4.850;2023-08-31T11:44:49;22.22;51.46
76040;SHT30;64736;50.462;4.850;2023-08-31T11:47:16;22.96;50.61
76040;SHT30;64736;50.462;4.850;2023-08-31T11:49:42;22.44;51.17
76040;SHT30;64736;50.462;4.850;2023-08-31T11:52:10;22.29;52.14
76040;SHT30;64736;50.462;4.850;2023-08-31T11:54:42;22.29;50.33
76040;SHT30;64736;50.462;4.850;2023-08-31T11:57:08;22.90;50.52
76040;SHT30;64736;50.462;4.850;2023-08-31T11:59:36;23.61;49.22
76040;SHT30;64736;50.462;4.850;2023-08-31T12:02:05;24.46;47.41
76040;SHT30;64736;50.462;4.850;2023-08-31T12:04:31;23.73;47.97
76040;SHT30;64736;50.462;4.850;2023-08-31T12:07:03;22.41;51.04
76040;SHT30;64736;50.462;4.850;2023-08-31T12:09:32;23.68;48.22
76040;SHT30;64736;50.462;4.850;2023-08-31T12:11:58;25.20;45.57
76040;SHT30;64736;50.462;4.850;2023-08-31T12:14:26;25.67;43.68
76040;SHT30;64736;50.462;4.850;2023-08-31T12:17:01;25.80;43.66
76040;SHT30;64736;50.462;4.850;2023-08-31T12:19:32;25.95;42.99
76040;SHT30;64736;50.462;4.850;2023-08-31T12:21:58;26.28;42.71
76040;SHT30;64736;50.462;4.850;2023-08-31T12:24:24;26.93;43.39
76040;SHT30;64736;50.462;4.850;2023-08-31T12:26:51;27.27;42.06
76040;SHT30;64736;50.462;4.850;2023-08-31T12:29:19;26.79;41.02
76040;SHT30;64736;50.462;4.850;2023-08-31T12:31:45;24.74;45.28
76040;SHT30;64736;50.462;4.850;2023-08-31T12:34:10;23.82;47.94
76040;SHT30;64736;50.462;4.850;2023-08-31T12:36:36;23.30;48.32
76040;SHT30;64736;50.462;4.850;2023-08-31T12:39:04;22.83;48.31
76040;SHT30;64736;50.462;4.850;2023-08-31T12:41:32;22.37;51.55
76040;SHT30;64736;50.462;4.850;2023-08-31T12:43:58;22.00;52.46
76040;SHT30;64736;50.462;4.850;2023-08-31T12:46:25;21.97;54.24
76040;SHT30;64736;50.462;4.850;2023-08-31T12:48:50;21.47;54.70
76040;SHT30;64736;50.462;4.850;2023-08-31T12:51:18;21.31;54.16
76040;SHT30;64736;50.462;4.850;2023-08-31T12:53:44;21.81;54.12
76040;SHT30;64736;50.462;4.850;2023-08-31T12:56:10;22.00;52.98
76040;SHT30;64736;50.462;4.850;2023-08-31T12:58:36;21.81;53.57
76040;SHT30;64736;50.462;4.850;2023-08-31T13:01:01;22.08;52.85
76040;SHT30;64736;50.462;4.850;2023-08-31T13:03:27;22.72;51.57
76040;SHT30;64736;50.462;4.850;2023-08-31T13:05:53;23.64;49.68
76040;SHT30;64736;50.462;4.850;2023-08-31T13:08:19;22.28;52.87
76040;SHT30;64736;50.462;4.850;2023-08-31T13:10:51;22.73;51.05
76040;SHT30;64736;50.462;4.850;2023-08-31T13:13:17;22.86;50.97
76040;SHT30;64736;50.462;4.850;2023-08-31T13:15:45;23.54;49.76
76040;SHT30;64736;50.462;4.850;2023-08-31T13:18:10;23.92;49.55
76040;SHT30;64736;50.462;4.850;2023-08-31T13:20:36;23.81;49.10
76040;SHT30;64736;50.462;4.850;2023-08-31T13:23:02;22.97;50.97
76040;SHT30;64736;50.462;4.850;2023-08-31T13:25:28;22.34;51.62
76040;SHT30;64736;50.462;4.850;2023-08-31T13:27:54;22.22;52.13
76040;SHT30;64736;50.462;4.850;2023-08-31T13:30:19;22.14;52.32
76040;SHT30;64736;50.462;4.850;2023-08-31T13:32:45;21.96;53.41
76040;SHT30;64736;50.462;4.850;2023-08-31T13:35:11;21.62;54.49
76040;SHT30;64736;50.462;4.850;2023-08-31T13:37:36;21.96;53.49
76040;SHT30;64736;50.462;4.850;2023-08-31T13:40:02;21.57;53.29
76040;SHT30;64736;50.462;4.850;2023-08-31T13:42:34;21.64;53.90
76040;SHT30;64736;50.462;4.850;2023-08-31T13:45:01;21.46;54.17
76040;SHT30;64736;50.462;4.850;2023-08-31T13:47:27;21.24;55.42
76040;SHT30;64736;50.462;4.850;2023-08-31T13:49:53;21.15;56.12
76040;SHT30;64736;50.462;4.850;2023-08-31T13:52:18;21.09;56.38
76040;SHT30;64736;50.462;4.850;2023-08-31T13:54:46;20.94;56.74
76040;SHT30;64736;50.462;4.850;2023-08-31T13:57:12;20.99;57.12
76040;SHT30;64736;50.462;4.850;2023-08-31T13:59:45;20.90;56.73
76040;SHT30;64736;50.462;4.850;2023-08-31T14:02:11;20.98;57.36
76040;SHT30;64736;50.462;4.850;2023-08-31T14:04:36;20.67;57.88
76040;SHT30;64736;50.462;4.850;2023-08-31T14:07:02;20.73;57.12
76040;SHT30;64736;50.462;4.850;2023-08-31T14:09:28;20.70;57.45
76040;SHT30;64736;50.462;4.850;2023-08-31T14:11:54;20.63;57.62
76040;SHT30;64736;50.462;4.850;2023-08-31T14:14:21;20.84;56.75
76040;SHT30;64736;50.462;4.850;2023-08-31T14:16:47;20.76;55.99
76040;SHT30;64736;50.462;4.850;2023-08-31T14:19:13;20.66;57.43
76040;SHT30;64736;50.462;4.850;2023-08-31T14:21:39;20.81;56.68
76040;SHT30;64736;50.462;4.850;2023-08-31T14:24:08;20.60;57.32
76040;SHT30;64736;50.462;4.850;2023-08-31T14:26:33;20.40;57.30
76040;SHT30;64736;50.462;4.850;2023-08-31T14:28:59;20.36;58.02
76040;SHT30;64736;50.462;4.850;2023-08-31T14:31:25;20.15;58.57
76040;SHT30;64736;50.462;4.850;2023-08-31T14:33:51;19.93;58.03
76040;SHT30;64736;50.462;4.850;2023-08-31T14:36:17;19.91;58.03
76040;SHT30;64736;50.462;4.850;2023-08-31T14:38:43;19.85;57.32
76040;SHT30;64736;50.462;4.850;2023-08-31T14:41:11;19.68;57.38
76040;SHT30;64736;50.462;4.850;2023-08-31T14:43:36;19.60;58.29
76040;SHT30;64736;50.462;4.850;2023-08-31T14:46:03;19.33;58.80
76040;SHT30;64736;50.462;4.850;2023-08-31T14:48:31;19.41;58.73
76040;SHT30;64736;50.462;4.850;2023-08-31T14:50:57;19.41;59.50
76040;SHT30;64736;50.462;4.850;2023-08-31T14:53:27;19.43;60.20
76040;SHT30;64736;50.462;4.850;2023-08-31T14:55:53;19.47;60.95
76040;SHT30;64736;50.462;4.850;2023-08-31T14:58:19;19.33;62.52
76040;SHT30;64736;50.462;4.850;2023-08-31T15:00:49;19.31;62.48
76040;SHT30;64736;50.462;4.850;2023-08-31T15:03:16;19.35;62.42
76040;SHT30;64736;50.462;4.850;2023-08-31T15:05:42;19.26;67.86
76040;SHT30;64736;50.462;4.850;2023-08-31T15:08:08;19.02;68.15
76040;SHT30;64736;50.462;4.850;2023-08-31T15:10:34;18.89;68.46
76040;SHT30;64736;50.462;4.850;2023-08-31T15:13:05;18.76;69.25
76040;SHT30;64736;50.462;4.850;2023-08-31T15:15:31;18.79;67.64
76040;SHT30;64736;50.462;4.850;2023-08-31T15:17:57;18.86;67.82
76040;SHT30;64736;50.462;4.850;2023-08-31T15:20:26;19.02;66.85
76040;SHT30;64736;50.462;4.850;2023-08-31T15:22:53;19.19;65.86
76040;SHT30;64736;50.462;4.850;2023-08-31T15:25:18;19.14;65.26
76040;SHT30;64736;50.462;4.850;2023-08-31T15:27:44;19.37;64.84
76040;SHT30;64736;50.462;4.850;2023-08-31T15:30:11;19.33;64.91
76040;SHT30;64736;50.462;4.850;2023-08-31T15:32:37;19.14;65.37
76040;SHT30;64736;50.462;4.850;2023-08-31T15:35:04;19.38;64.72
76040;SHT30;64736;50.462;4.850;2023-08-31T15:37:30;19.46;63.79
76040;SHT30;64736;50.462;4.850;2023-08-31T15:39:56;19.41;64.26
76040;SHT30;64736;50.462;4.850;2023-08-31T15:42:26;19.44;64.87